createdAt,value
2022-09-06T00:00:49.019Z,24.60
2022-09-06T00:03:17.788Z,24.60
2022-09-06T00:05:45.745Z,24.60
2022-09-06T00:08:15.027Z,24.60
2022-09-06T00:10:43.327Z,24.50
2022-09-06T00:13:13.746Z,24.50
2022-09-06T00:15:41.906Z,24.50
2022-09-06T00:18:09.938Z,24.50
2022-09-06T00:20:41.811Z,24.60
2022-09-06T00:23:09.957Z,24.60
2022-09-06T00:25:37.930Z,24.60
2022-09-06T00:28:07.108Z,24.50
2022-09-06T00:30:37.576Z,24.50
2022-09-06T00:33:05.739Z,24.50
2022-09-06T00:35:33.878Z,24.50
2022-09-06T00:38:02.688Z,24.40
2022-09-06T00:40:34.516Z,24.40
2022-09-06T00:43:02.686Z,24.50
2022-09-06T00:45:31.690Z,24.50
2022-09-06T00:48:02.625Z,24.40
2022-09-06T00:50:31.117Z,24.40
2022-09-06T00:52:59.247Z,24.30
2022-09-06T00:55:27.467Z,24.30
2022-09-06T00:57:56.808Z,24.20
2022-09-06T01:00:25.187Z,24.30
2022-09-06T01:02:55.062Z,24.30
2022-09-06T01:05:32.186Z,24.20
2022-09-06T01:08:15.558Z,24.20
2022-09-06T01:11:18.777Z,24.20
2022-09-06T01:13:56.227Z,24.10
2022-09-06T01:16:30.867Z,24.10
2022-09-06T01:19:30.486Z,24.10
2022-09-06T01:22:09.786Z,24.00
2022-09-06T01:25:02.199Z,24.00
2022-09-06T01:28:08.597Z,24.00
2022-09-06T01:30:43.136Z,24.00
2022-09-06T01:33:17.559Z,24.00
2022-09-06T01:35:51.506Z,24.00
2022-09-06T01:38:19.948Z,24.10
2022-09-06T01:40:47.948Z,24.00
2022-09-06T01:43:24.397Z,23.90
2022-09-06T01:46:01.050Z,24.00
2022-09-06T01:48:40.546Z,24.10
2022-09-06T01:51:23.968Z,24.00
2022-09-06T01:54:10.797Z,23.90
2022-09-06T01:56:45.837Z,23.90
2022-09-06T01:59:51.587Z,23.80
2022-09-06T02:02:26.925Z,23.90
2022-09-06T02:05:01.728Z,24.00
2022-09-06T02:07:32.536Z,23.80
2022-09-06T02:10:07.466Z,23.80
2022-09-06T02:12:39.537Z,23.80
2022-09-06T02:15:12.496Z,23.70
2022-09-06T02:17:46.120Z,23.70
2022-09-06T02:20:17.680Z,23.60
2022-09-06T02:22:48.310Z,23.70
2022-09-06T02:25:22.874Z,23.60
2022-09-06T02:27:51.040Z,23.50
2022-09-06T02:30:20.641Z,23.40
2022-09-06T02:32:56.290Z,23.50
2022-09-06T02:35:24.643Z,23.50
2022-09-06T02:37:52.742Z,23.40
2022-09-06T02:40:21.272Z,23.40
2022-09-06T02:42:49.192Z,23.30
2022-09-06T02:45:17.382Z,23.30
2022-09-06T02:47:46.862Z,23.40
2022-09-06T02:50:15.603Z,23.40
2022-09-06T02:52:43.534Z,23.30
2022-09-06T02:55:11.951Z,23.30
2022-09-06T02:57:39.943Z,23.30
2022-09-06T03:00:09.102Z,23.30
2022-09-06T03:02:37.172Z,23.20
2022-09-06T03:05:07.214Z,23.20
2022-09-06T03:07:35.181Z,23.30
2022-09-06T03:10:03.492Z,23.20
2022-09-06T03:12:31.462Z,23.30
2022-09-06T03:14:59.461Z,23.30
2022-09-06T03:17:27.422Z,23.30
2022-09-06T03:19:55.581Z,23.20
2022-09-06T03:22:25.062Z,23.10
2022-09-06T03:24:53.082Z,23.10
2022-09-06T03:27:21.003Z,23.10
2022-09-06T03:29:49.102Z,23.00
2022-09-06T03:32:17.093Z,22.90
2022-09-06T03:34:45.162Z,22.90
2022-09-06T03:37:13.202Z,22.90
2022-09-06T03:39:42.779Z,22.80
2022-09-06T03:42:10.782Z,22.60
2022-09-06T03:44:38.811Z,22.60
2022-09-06T03:47:07.061Z,22.70
2022-09-06T03:49:35.113Z,22.80
2022-09-06T03:52:03.480Z,22.80
2022-09-06T03:54:31.571Z,22.90
2022-09-06T03:57:01.091Z,23.00
2022-09-06T03:59:29.153Z,23.00
2022-09-06T04:01:57.144Z,23.00
2022-09-06T04:04:25.306Z,22.90
2022-09-06T04:06:53.241Z,22.90
2022-09-06T04:09:21.392Z,22.90
2022-09-06T04:11:49.342Z,22.90
2022-09-06T04:14:19.021Z,22.90
2022-09-06T04:16:47.070Z,22.90
2022-09-06T04:19:15.192Z,22.90
2022-09-06T04:21:43.093Z,22.80
2022-09-06T04:24:11.121Z,22.70
2022-09-06T04:26:39.304Z,22.70
2022-09-06T04:29:07.383Z,22.60
2022-09-06T04:31:36.982Z,22.70
2022-09-06T04:34:05.052Z,22.70
2022-09-06T04:36:33.123Z,22.60
2022-09-06T04:39:01.293Z,22.60
2022-09-06T04:41:29.201Z,22.60
2022-09-06T04:43:57.262Z,22.50
2022-09-06T04:46:27.292Z,22.30
2022-09-06T04:48:58.181Z,22.20
2022-09-06T04:51:26.515Z,22.20
2022-09-06T04:53:54.512Z,22.30
2022-09-06T04:56:24.165Z,22.30
2022-09-06T04:58:53.443Z,22.30
2022-09-06T05:01:21.489Z,22.30
2022-09-06T05:03:50.842Z,22.30
2022-09-06T05:06:23.445Z,22.40
2022-09-06T05:08:52.060Z,22.40
2022-09-06T05:11:20.153Z,22.30
2022-09-06T05:13:48.222Z,22.40
2022-09-06T05:16:16.446Z,22.30
2022-09-06T05:18:44.843Z,22.40
2022-09-06T05:21:12.851Z,22.50
2022-09-06T05:23:42.865Z,22.50
2022-09-06T05:26:11.072Z,22.60
2022-09-06T05:28:39.013Z,22.70
2022-09-06T05:31:08.484Z,22.60
2022-09-06T05:33:36.912Z,22.70
2022-09-06T05:36:06.213Z,22.70
2022-09-06T05:38:34.428Z,22.70
2022-09-06T05:41:04.000Z,22.80
2022-09-06T05:43:32.093Z,22.80
2022-09-06T05:46:00.191Z,22.80
2022-09-06T05:48:29.728Z,22.80
2022-09-06T05:51:03.307Z,22.80
2022-09-06T05:53:35.241Z,22.80
2022-09-06T05:56:06.625Z,22.80
2022-09-06T05:58:35.111Z,22.70
2022-09-06T06:01:08.457Z,22.70
2022-09-06T06:03:36.683Z,22.60
2022-09-06T06:06:04.772Z,22.60
2022-09-06T06:08:32.934Z,22.70
2022-09-06T06:11:01.077Z,22.80
2022-09-06T06:13:35.146Z,22.90
2022-09-06T06:16:04.020Z,22.80
2022-09-06T06:18:32.815Z,22.90
2022-09-06T06:21:12.631Z,22.90
2022-09-06T06:23:41.982Z,22.80
2022-09-06T06:26:10.872Z,22.70
2022-09-06T06:28:41.355Z,22.80
2022-09-06T06:31:12.679Z,22.90
2022-09-06T06:33:41.343Z,23.00
2022-09-06T06:36:23.346Z,23.00
2022-09-06T06:38:55.135Z,23.00
2022-09-06T06:41:25.255Z,23.00
2022-09-06T06:43:56.185Z,23.00
2022-09-06T06:46:25.956Z,23.20
2022-09-06T06:48:55.675Z,23.30
2022-09-06T06:51:25.864Z,23.40
2022-09-06T06:53:54.806Z,23.30
2022-09-06T06:56:24.967Z,23.40
2022-09-06T06:58:58.003Z,23.50
2022-09-06T07:01:28.313Z,23.50
2022-09-06T07:03:57.306Z,23.50
2022-09-06T07:09:14.589Z,23.70
2022-09-06T07:11:43.064Z,23.80
2022-09-06T07:14:13.186Z,23.90
2022-09-06T07:16:41.710Z,23.80
2022-09-06T07:22:02.894Z,24.00
2022-09-06T07:24:33.865Z,24.00
2022-09-06T07:29:52.186Z,24.10
2022-09-06T07:32:20.698Z,24.20
2022-09-06T07:34:49.239Z,24.30
2022-09-06T07:37:17.549Z,24.40
2022-09-06T07:39:46.212Z,24.40
2022-09-06T07:42:16.484Z,24.40
2022-09-06T07:44:45.057Z,24.50
2022-09-06T07:53:13.011Z,24.70
2022-09-06T07:55:43.009Z,24.80
2022-09-06T07:58:11.587Z,24.80
2022-09-06T08:00:41.681Z,24.80
2022-09-06T08:03:12.066Z,24.90
2022-09-06T08:11:18.537Z,25.10
2022-09-06T08:13:50.627Z,25.20
2022-09-06T08:16:20.586Z,25.20
2022-09-06T08:18:53.803Z,25.20
2022-09-06T08:21:26.937Z,25.30
2022-09-06T08:23:57.758Z,25.40
2022-09-06T08:26:27.296Z,25.60
2022-09-06T08:28:56.306Z,25.70
2022-09-06T08:31:25.318Z,25.80
2022-09-06T08:33:55.995Z,25.90
2022-09-06T08:36:27.665Z,26.00
2022-09-06T08:38:56.358Z,26.10
2022-09-06T08:41:26.835Z,26.20
2022-09-06T08:46:55.176Z,26.30
2022-09-06T08:49:26.245Z,26.30
2022-09-06T08:52:06.697Z,26.40
2022-09-06T08:54:40.643Z,26.40
2022-09-06T08:57:15.985Z,26.60
2022-09-06T08:59:45.155Z,26.70
2022-09-06T09:02:16.163Z,26.80
2022-09-06T09:04:51.142Z,26.80
2022-09-06T09:07:44.896Z,26.80
2022-09-06T09:10:17.452Z,26.80
2022-09-06T09:12:48.707Z,26.90
2022-09-06T09:15:19.575Z,26.90
2022-09-06T09:17:51.176Z,27.00
2022-09-06T09:20:22.376Z,27.00
2022-09-06T09:22:51.102Z,27.10
2022-09-06T09:25:23.116Z,27.10
2022-09-06T09:27:58.148Z,27.10
2022-09-06T09:33:28.637Z,27.50
2022-09-06T09:36:01.466Z,27.80
2022-09-06T09:38:32.937Z,27.90
2022-09-06T09:41:04.260Z,28.00
2022-09-06T09:43:35.445Z,28.00
2022-09-06T09:46:28.406Z,28.00
2022-09-06T09:49:09.176Z,27.90
2022-09-06T09:51:40.959Z,28.10
2022-09-06T09:54:11.307Z,28.00
2022-09-06T09:56:44.323Z,28.10
2022-09-06T09:59:25.956Z,28.30
2022-09-06T10:01:57.705Z,28.30
2022-09-06T10:04:46.445Z,28.60
2022-09-06T10:07:18.370Z,28.60
2022-09-06T10:09:48.926Z,28.70
2022-09-06T10:12:19.980Z,28.80
2022-09-06T10:14:50.347Z,28.60
2022-09-06T10:17:31.094Z,28.70
2022-09-06T10:20:03.879Z,28.70
2022-09-06T10:22:44.284Z,28.70
2022-09-06T10:25:33.268Z,28.80
2022-09-06T10:28:33.708Z,28.80
2022-09-06T10:31:27.437Z,28.90
2022-09-06T10:34:07.917Z,29.00
2022-09-06T10:36:39.982Z,29.30
2022-09-06T10:39:23.872Z,29.60
2022-09-06T10:42:06.038Z,29.70
2022-09-06T10:44:51.139Z,29.90
2022-09-06T10:47:19.749Z,30.10
2022-09-06T10:49:54.838Z,30.20
2022-09-06T10:52:27.628Z,30.30
2022-09-06T10:55:04.469Z,30.40
2022-09-06T11:00:30.030Z,30.60
2022-09-06T11:06:05.330Z,30.80
2022-09-06T11:08:47.399Z,30.80
2022-09-06T11:11:25.218Z,30.80
2022-09-06T11:13:53.869Z,30.90
2022-09-06T11:16:26.964Z,31.10
2022-09-06T11:19:02.003Z,31.20
2022-09-06T11:21:54.808Z,31.20
2022-09-06T11:24:35.685Z,31.30
2022-09-06T11:27:17.220Z,31.30
2022-09-06T11:29:52.539Z,31.20
2022-09-06T11:32:40.110Z,31.20
2022-09-06T11:35:18.599Z,31.20
2022-09-06T11:37:51.982Z,31.40
2022-09-06T11:40:26.884Z,31.60
2022-09-06T11:43:20.106Z,31.70
2022-09-06T11:45:51.669Z,31.60
2022-09-06T11:48:36.910Z,31.80
2022-09-06T11:51:07.258Z,31.90
2022-09-06T11:53:58.830Z,31.90
2022-09-06T11:56:31.778Z,31.80
2022-09-06T11:59:07.309Z,31.90
2022-09-06T12:01:41.358Z,31.80
2022-09-06T12:04:10.731Z,31.90
2022-09-06T12:06:42.479Z,32.10
2022-09-06T12:09:32.008Z,32.30
2022-09-06T12:12:00.978Z,32.10
2022-09-06T12:14:40.487Z,32.20
2022-09-06T12:17:26.680Z,32.40
2022-09-06T12:20:08.987Z,32.50
2022-09-06T12:23:04.690Z,32.70
2022-09-06T12:25:55.777Z,32.90
2022-09-06T12:28:38.308Z,32.90
2022-09-06T12:31:31.745Z,32.80
2022-09-06T12:34:06.188Z,32.70
2022-09-06T12:36:34.758Z,32.70
2022-09-06T12:39:05.748Z,32.90
2022-09-06T12:41:43.151Z,33.10
2022-09-06T12:44:14.874Z,33.10
2022-09-06T12:46:50.338Z,33.10
2022-09-06T12:49:21.758Z,33.00
2022-09-06T12:51:50.818Z,33.10
2022-09-06T12:54:22.660Z,33.20
2022-09-06T12:56:51.649Z,33.40
2022-09-06T12:59:21.638Z,33.30
2022-09-06T13:02:00.942Z,33.20
2022-09-06T13:04:36.001Z,33.40
2022-09-06T13:07:05.488Z,33.60
2022-09-06T13:09:34.439Z,33.80
2022-09-06T13:12:07.128Z,34.00
2022-09-06T13:14:36.559Z,33.90
2022-09-06T13:17:06.270Z,33.80
2022-09-06T13:19:36.379Z,33.80
2022-09-06T13:22:07.919Z,33.80
2022-09-06T13:24:46.873Z,33.80
2022-09-06T13:27:27.567Z,33.80
2022-09-06T13:29:57.289Z,33.80
2022-09-06T13:32:27.859Z,33.70
2022-09-06T13:34:58.059Z,33.60
2022-09-06T13:37:27.657Z,33.90
2022-09-06T13:39:57.922Z,34.00
2022-09-06T13:42:29.522Z,34.10
2022-09-06T13:45:16.458Z,34.20
2022-09-06T13:47:46.039Z,34.30
2022-09-06T13:50:14.299Z,34.60
2022-09-06T13:52:42.629Z,34.50
2022-09-06T13:55:15.741Z,34.60
2022-09-06T13:57:44.760Z,34.50
2022-09-06T14:00:14.250Z,34.30
2022-09-06T14:02:49.675Z,33.80
2022-09-06T14:05:19.259Z,33.60
2022-09-06T14:07:47.578Z,33.70
2022-09-06T14:10:16.261Z,33.40
2022-09-06T14:12:44.428Z,33.30
2022-09-06T14:15:13.769Z,33.80
2022-09-06T14:17:42.183Z,34.10
2022-09-06T14:20:12.361Z,34.20
2022-09-06T14:22:41.113Z,34.30
2022-09-06T14:25:11.402Z,34.30
2022-09-06T14:27:39.776Z,34.20
2022-09-06T14:30:09.154Z,34.30
2022-09-06T14:32:37.293Z,34.20
2022-09-06T14:35:06.253Z,33.60
2022-09-06T14:37:35.872Z,32.90
2022-09-06T14:40:04.526Z,32.50
2022-09-06T14:42:33.093Z,33.00
2022-09-06T14:45:01.272Z,33.80
2022-09-06T14:47:32.164Z,34.30
2022-09-06T14:50:00.762Z,34.30
2022-09-06T14:52:29.312Z,34.60
2022-09-06T14:54:59.162Z,34.60
2022-09-06T14:57:27.541Z,34.00
2022-09-06T14:59:55.853Z,34.30
2022-09-06T15:02:24.578Z,34.80
2022-09-06T15:04:52.732Z,34.90
2022-09-06T15:07:21.076Z,34.90
2022-09-06T15:09:51.361Z,35.00
2022-09-06T15:12:21.183Z,34.90
2022-09-06T15:14:49.642Z,34.80
2022-09-06T15:17:17.703Z,34.70
2022-09-06T15:19:46.173Z,34.60
2022-09-06T15:22:14.123Z,34.60
2022-09-06T15:24:42.252Z,34.50
2022-09-06T15:27:10.611Z,34.60
2022-09-06T15:29:40.451Z,34.70
2022-09-06T15:32:08.483Z,34.50
2022-09-06T15:34:36.612Z,33.80
2022-09-06T15:37:04.723Z,33.40
2022-09-06T15:39:33.078Z,33.80
2022-09-06T15:42:01.361Z,34.00
2022-09-06T15:44:29.760Z,34.20
2022-09-06T15:46:59.504Z,34.40
2022-09-06T15:49:29.604Z,34.30
2022-09-06T15:51:58.482Z,34.00
2022-09-06T15:54:45.948Z,33.60
2022-09-06T15:57:15.133Z,33.10
2022-09-06T15:59:43.204Z,32.80
2022-09-06T16:02:13.878Z,32.70
2022-09-06T16:04:42.316Z,32.40
2022-09-06T16:07:10.682Z,32.20
2022-09-06T16:09:39.132Z,31.90
2022-09-06T16:12:07.581Z,31.70
2022-09-06T16:14:36.074Z,31.30
2022-09-06T16:17:04.447Z,31.20
2022-09-06T16:19:34.145Z,31.10
2022-09-06T16:22:02.791Z,31.00
2022-09-06T16:24:31.423Z,31.00
2022-09-06T16:26:59.903Z,31.00
2022-09-06T16:29:28.193Z,31.30
2022-09-06T16:32:00.065Z,31.60
2022-09-06T16:34:29.050Z,32.80
2022-09-06T16:37:01.253Z,33.80
2022-09-06T16:39:29.666Z,34.30
2022-09-06T16:41:58.043Z,34.60
2022-09-06T16:44:26.604Z,35.10
2022-09-06T16:46:57.521Z,35.10
2022-09-06T16:49:26.252Z,35.00
2022-09-06T16:51:54.863Z,34.80
2022-09-06T16:54:24.963Z,34.60
2022-09-06T16:56:53.462Z,34.30
2022-09-06T16:59:22.042Z,32.90
2022-09-06T17:01:51.837Z,32.00
2022-09-06T17:04:20.062Z,31.60
2022-09-06T17:06:48.297Z,31.30
2022-09-06T17:09:19.604Z,31.00
2022-09-06T17:11:52.253Z,30.70
2022-09-06T17:14:20.853Z,30.50
2022-09-06T17:17:07.762Z,30.30
2022-09-06T17:19:37.102Z,30.20
2022-09-06T17:22:05.674Z,30.10
2022-09-06T17:24:34.285Z,30.00
2022-09-06T17:27:04.627Z,29.90
2022-09-06T17:29:32.933Z,29.80
2022-09-06T17:32:01.292Z,29.70
2022-09-06T17:34:29.451Z,29.60
2022-09-06T17:36:57.813Z,29.60
2022-09-06T17:39:25.968Z,29.50
2022-09-06T17:41:54.902Z,29.60
2022-09-06T17:44:26.754Z,29.50
2022-09-06T17:47:12.465Z,29.50
2022-09-06T17:49:41.643Z,29.40
2022-09-06T17:52:10.012Z,29.30
2022-09-06T17:54:38.277Z,29.20
2022-09-06T17:57:06.603Z,29.10
2022-09-06T17:59:36.403Z,29.10
2022-09-06T18:02:05.346Z,29.00
2022-09-06T18:04:33.702Z,29.00
2022-09-06T18:07:02.044Z,29.00
2022-09-06T18:09:30.449Z,29.00
2022-09-06T18:11:59.552Z,28.90
2022-09-06T18:14:28.973Z,28.90
2022-09-06T18:16:58.906Z,28.90
2022-09-06T18:19:28.192Z,28.90
2022-09-06T18:21:57.599Z,28.80
2022-09-06T18:24:26.089Z,28.80
2022-09-06T18:26:54.608Z,28.70
2022-09-06T18:29:23.097Z,28.60
2022-09-06T18:31:54.436Z,28.60
2022-09-06T18:34:25.430Z,28.50
2022-09-06T18:36:53.960Z,28.50
2022-09-06T18:39:22.519Z,28.40
2022-09-06T18:42:00.546Z,28.30
2022-09-06T18:44:32.275Z,28.20
2022-09-06T18:47:02.541Z,28.10
2022-09-06T18:49:34.138Z,27.90
2022-09-06T18:52:03.527Z,27.80
2022-09-06T18:54:33.033Z,27.80
2022-09-06T18:57:01.628Z,27.70
2022-09-06T18:59:30.191Z,27.60
2022-09-06T19:01:58.952Z,27.60
2022-09-06T19:04:27.769Z,27.50
2022-09-06T19:06:57.653Z,27.40
2022-09-06T19:09:26.531Z,27.50
2022-09-06T19:11:56.039Z,27.50
2022-09-06T19:14:24.366Z,27.50
2022-09-06T19:16:55.299Z,27.50
2022-09-06T19:19:24.698Z,27.40
2022-09-06T19:21:53.219Z,27.30
2022-09-06T19:24:24.848Z,27.30
2022-09-06T19:26:54.021Z,27.20
2022-09-06T19:29:22.938Z,27.20
2022-09-06T19:31:52.487Z,27.30
2022-09-06T19:34:24.800Z,27.20
2022-09-06T19:36:55.663Z,27.20
2022-09-06T19:39:36.261Z,27.20
2022-09-06T19:42:06.240Z,27.20
2022-09-06T19:44:34.779Z,27.30
2022-09-06T19:47:03.706Z,27.30
2022-09-06T19:49:32.720Z,27.30
2022-09-06T19:52:02.019Z,27.30
2022-09-06T19:54:32.070Z,27.50
2022-09-06T19:57:00.709Z,27.50
2022-09-06T19:59:29.900Z,27.50
2022-09-06T20:01:58.503Z,27.50
2022-09-06T20:04:29.319Z,27.50
2022-09-06T20:06:58.899Z,27.40
2022-09-06T20:09:27.720Z,27.40
2022-09-06T20:11:59.410Z,27.30
2022-09-06T20:14:28.121Z,27.30
2022-09-06T20:17:02.925Z,27.30
2022-09-06T20:19:45.110Z,27.30
2022-09-06T20:22:13.711Z,27.30
2022-09-06T20:24:43.401Z,27.30
2022-09-06T20:27:13.110Z,27.30
2022-09-06T20:29:42.400Z,27.30
2022-09-06T20:32:11.770Z,27.40
2022-09-06T20:34:42.511Z,27.40
2022-09-06T20:37:11.328Z,27.30
2022-09-06T20:39:40.355Z,27.20
2022-09-06T20:42:08.986Z,27.20
2022-09-06T20:44:38.920Z,27.10
2022-09-06T20:47:07.717Z,27.00
2022-09-06T20:49:36.479Z,27.00
2022-09-06T20:52:05.159Z,26.90
2022-09-06T20:54:34.020Z,27.10
2022-09-06T20:57:03.069Z,27.20
2022-09-06T20:59:31.970Z,27.30
2022-09-06T21:02:02.794Z,27.30
2022-09-06T21:04:31.979Z,27.30
2022-09-06T21:07:00.790Z,27.40
2022-09-06T21:09:29.299Z,27.30
2022-09-06T21:11:59.220Z,27.20
2022-09-06T21:14:27.711Z,27.10
2022-09-06T21:16:56.879Z,27.10
2022-09-06T21:19:27.325Z,27.10
2022-09-06T21:21:55.841Z,27.00
2022-09-06T21:24:24.468Z,26.90
2022-09-06T21:26:52.840Z,26.80
2022-09-06T21:29:21.280Z,26.70
2022-09-06T21:31:49.666Z,26.70
2022-09-06T21:34:18.000Z,26.60
2022-09-06T21:36:47.889Z,26.60
2022-09-06T21:39:16.450Z,26.40
2022-09-06T21:41:45.450Z,26.30
2022-09-06T21:44:14.488Z,26.10
2022-09-06T21:46:43.102Z,26.10
2022-09-06T21:49:13.131Z,26.10
2022-09-06T21:51:41.971Z,26.10
2022-09-06T21:54:11.945Z,26.00
2022-09-06T21:56:41.041Z,26.00
2022-09-06T21:59:10.192Z,26.10
2022-09-06T22:01:40.399Z,26.00
2022-09-06T22:04:08.724Z,26.00
2022-09-06T22:06:38.290Z,26.00
2022-09-06T22:09:11.140Z,26.00
2022-09-06T22:11:43.619Z,26.10
2022-09-06T22:14:13.611Z,26.20
2022-09-06T22:16:42.631Z,26.30
2022-09-06T22:19:11.547Z,26.30
2022-09-06T22:21:40.237Z,26.30
2022-09-06T22:24:10.357Z,26.40
2022-09-06T22:26:41.487Z,26.30
2022-09-06T22:29:11.397Z,26.40
2022-09-06T22:31:42.026Z,26.40
2022-09-06T22:34:10.946Z,26.30
2022-09-06T22:36:39.428Z,26.20
2022-09-06T22:39:07.856Z,26.20
2022-09-06T22:41:36.818Z,26.10
2022-09-06T22:44:07.168Z,26.10
2022-09-06T22:46:36.352Z,26.10
2022-09-06T22:49:05.729Z,26.10
2022-09-06T22:51:34.086Z,26.10
2022-09-06T22:54:02.598Z,26.00
2022-09-06T22:56:31.038Z,26.00
2022-09-06T22:59:00.636Z,26.00
2022-09-06T23:01:30.888Z,26.00
2022-09-06T23:03:59.206Z,26.00
2022-09-06T23:06:28.508Z,26.10
2022-09-06T23:08:56.647Z,26.00
2022-09-06T23:11:24.916Z,26.00
2022-09-06T23:13:56.833Z,25.90
2022-09-06T23:16:26.103Z,25.90
2022-09-06T23:18:56.205Z,25.80
2022-09-06T23:21:25.878Z,25.70
2022-09-06T23:23:55.474Z,25.70
2022-09-06T23:26:25.718Z,25.70
2022-09-06T23:28:56.972Z,25.70
2022-09-06T23:31:27.385Z,25.80
2022-09-06T23:33:58.135Z,25.80
2022-09-06T23:36:26.608Z,25.80
2022-09-06T23:38:56.287Z,25.70
2022-09-06T23:41:25.173Z,25.70
2022-09-06T23:43:53.245Z,25.60
2022-09-06T23:46:21.661Z,25.60
2022-09-06T23:48:49.786Z,25.60
2022-09-06T23:51:19.535Z,25.60
2022-09-06T23:53:47.713Z,25.60
2022-09-06T23:56:16.254Z,25.60
2022-09-06T23:58:44.406Z,25.60
